Arpin, WI

2:53 AM CDT on August 22, 2014 (GMT -0500)
WIDOT Pittsville - STH 13 @ STH 80 | Change Station
CLOSE
Current Station
Personal Weather Station
Location: Pittsville, WI
Elevation: 1040 ft
Nearby Weather Stations

Elev 1040 ft 44.45 °N, 90.13 °W | Updated 34 minutes ago

Overcast
Overcast
72 °F
Feels Like 72 °F
N
4
Wind Variable Wind from ENE
Gusts 7.0 mph

Today
High -- | Low -- °F
--% Chance of Precip.
Yesterday
High -- | Low -- °F
Precip. -- in
6:11 AM 7:54 PM
Waning Crescent, 9% visible
Pressure 29.89 in
Visibility 3.0 miles
Clouds Overcast 200 ft
Dew Point 71 °F
Humidity 96%
Rainfall -999.00 in
Snow Depth Not available.
UV 0 out of 12
Pollen 6.80 out of 12
Air Quality Not available.
Flu Activity Not available.
METAR KMFI 220654Z AUTO 10008KT 3SM BR OVC002 22/21 A2991 RMK AO2 SLP120 T02170206

More Conditions Fewer Conditions

Pressure 29.89 in
Visibility 3.0 miles
Clouds Overcast 200 ft
Dew Point 71 °F
Humidity 96%
Rainfall -999.00 in
Snow Depth Not available.
UV 0 out of 12
Pollen 6.80 out of 12
Air Quality Not available.
Flu Activity Not available.
METAR KMFI 220654Z AUTO 10008KT 3SM BR OVC002 22/21 A2991 RMK AO2 SLP120 T02170206

More Conditions Fewer Conditions

Nowcast | as of 12:37 am CDT on August 22, 2014

patchy dense fog across the area... Light winds in the wake of recent rains was allowing some fog to form across the area. Although most reporting sites at airports were reporting visibilities of at least a mile...the fog was dense and reducing visibilities below 1/4 mile at few locations. Anyone traveling early this morning should be alert for the possibility of encountering patchy dense fog. Fog banks are most likely to form in low-lying areas and near rivers and streams. If you encounter a fog bank while driving...slow your vehicle to the point where you will be able to safely stop if you encounter an object or animal on the Road. Always use low-beam headlights when driving in fog.

×

10-Day Weather Forecast

Almanac

Astronomy

Aug. 22, 2014 Rise Set
Actual Time 6:11 AM CDT 7:54 PM CDT
Civil Twilight 5:40 AM CDT 8:24 PM CDT
Nautical Twilight 5:02 AM CDT 9:02 PM CDT
Astronomical Twilight 4:21 AM CDT 9:42 PM CDT
Moon 3:30 AM CDT 6:04 PM CDT
Length of Visible Light 14h 44m
Length of Day
13h 43m
Tomorrow will be 2m 51s shorter.
Waning Crescent, 9% of the Moon is Illuminated
Today
Waning Crescent
Aug 25
New
Sep 2
First Quarter
Sep 8
Full
Sep 15
Last Quarter

Today's Extremes

State Highs State Lows

Community

WunderPhotos

Upload Photos

1,746,131 photos uploaded!

Nearby

Snow Depth

Station Depth Elevation
No new snow has been reported.

Earthquake Activity

City Distance Mag. Time & Date
No recent earthquake activity has been reported nearby.
Minimum magnitude displayed is 2.5.

Coastal Water Temperatures

Place Temperature
No Stations Reporting

Nearby Weather Stations